Accueil
METAR-TAF:

METAR-TAF

Aéroports :

Aéroport de Tanger-Ibn Battouta

Tanger, Maroc

latitude: 35-44N, longitude: 005-54W, altitude: 19 m

Observation

Le bulletin a été fait il y a 11 minutes, à 22:00 UTC
Vent 3 kt de est/nord-est
Température 16°C
Humidité 94%
Pression 1015 hPa
Visibilité 10 km ou plus
pas de nuages en-dessous de 1500 mètres et pas de cumulonimbus.

METAR: GMTT 222200Z 06003KT CAVOK 16/15 Q1015 NOSIG

Heure: 23:11 (22:11 UTC)

Prévision

Le bulletin a été fait il y a 5 heures et 11 minutes, à 17:00 UTC
Prévision valable du 22 à 18 UTC au 23 à 24 UTC
Vent 9 kt de ouest/nord-ouest
Visibilité 10 km ou plus
pas de nuages en-dessous de 1500 mètres et pas de cumulonimbus.

TAF: GMTT 221700Z 2218/2324 30009KT CAVOK

Observations et prévisions météorologiques de plus de 4000 aéroports (messages METAR et TAF).

Les stations disponibles sont représentées par des disques jaunes et rouges sur la carte.

Passer la souris dessus pour voir le nom de la station.

Cliquer dessus pour voir les observations et prévisions météorologiques.

Pour changer de carte: cliquez sur les boutons verts avec une croix noire pour zoomer, sur le bouton vert avec un tiret pour effectuer un zoom arrière, ou sur les flèches vertes pour les cartes adjacentes.


METAR-TAF: